sensor_id;sensor_type;location;lat;lon;timestamp;P1;durP1;ratioP1;P2;durP2;ratioP2
64085;SDS011;50333;47.436;21.390;2023-02-19T09:25:02;15.57;;;10.40;;
64085;SDS011;50333;47.436;21.390;2023-02-19T09:27:29;17.92;;;11.55;;
64085;SDS011;50333;47.436;21.390;2023-02-19T09:29:58;15.68;;;11.15;;
64085;SDS011;50333;47.436;21.390;2023-02-19T09:32:28;17.73;;;11.77;;
64085;SDS011;50333;47.436;21.390;2023-02-19T09:34:57;18.95;;;11.30;;
64085;SDS011;50333;47.436;21.390;2023-02-19T09:37:28;17.27;;;11.30;;
64085;SDS011;50333;47.436;21.390;2023-02-19T09:40:00;16.40;;;11.45;;
64085;SDS011;50333;47.436;21.390;2023-02-19T09:42:28;15.35;;;11.23;;
64085;SDS011;50333;47.436;21.390;2023-02-19T09:44:59;20.25;;;11.23;;
64085;SDS011;50333;47.436;21.390;2023-02-19T09:47:29;17.95;;;12.82;;
64085;SDS011;50333;47.436;21.390;2023-02-19T09:50:11;25.08;;;14.25;;
64085;SDS011;50333;47.436;21.390;2023-02-19T09:52:48;26.75;;;14.43;;
64085;SDS011;50333;47.436;21.390;2023-02-19T09:55:54;22.15;;;13.35;;
64085;SDS011;50333;47.436;21.390;2023-02-19T10:01:24;24.50;;;13.23;;
64085;SDS011;50333;47.436;21.390;2023-02-19T10:03:56;20.37;;;12.80;;
64085;SDS011;50333;47.436;21.390;2023-02-19T10:06:26;20.85;;;13.70;;
64085;SDS011;50333;47.436;21.390;2023-02-19T10:08:59;18.20;;;12.65;;
64085;SDS011;50333;47.436;21.390;2023-02-19T10:14:20;18.02;;;12.30;;
64085;SDS011;50333;47.436;21.390;2023-02-19T10:16:59;18.62;;;11.20;;
64085;SDS011;50333;47.436;21.390;2023-02-19T10:22:00;20.00;;;12.70;;
64085;SDS011;50333;47.436;21.390;2023-02-19T10:24:30;24.65;;;13.43;;
64085;SDS011;50333;47.436;21.390;2023-02-19T10:26:59;24.10;;;13.82;;
64085;SDS011;50333;47.436;21.390;2023-02-19T10:29:27;25.92;;;14.77;;
64085;SDS011;50333;47.436;21.390;2023-02-19T10:34:45;21.50;;;12.43;;
64085;SDS011;50333;47.436;21.390;2023-02-19T10:37:14;15.00;;;11.82;;
64085;SDS011;50333;47.436;21.390;2023-02-19T10:39:46;20.65;;;13.13;;
64085;SDS011;50333;47.436;21.390;2023-02-19T10:42:17;17.08;;;12.25;;
64085;SDS011;50333;47.436;21.390;2023-02-19T10:47:25;18.40;;;11.95;;
64085;SDS011;50333;47.436;21.390;2023-02-19T10:49:56;24.67;;;13.95;;
64085;SDS011;50333;47.436;21.390;2023-02-19T10:52:31;18.30;;;12.77;;
64085;SDS011;50333;47.436;21.390;2023-02-19T10:57:55;22.77;;;14.50;;
64085;SDS011;50333;47.436;21.390;2023-02-19T11:00:25;19.52;;;13.57;;
64085;SDS011;50333;47.436;21.390;2023-02-19T11:05:56;15.88;;;10.50;;
64085;SDS011;50333;47.436;21.390;2023-02-19T11:08:28;20.30;;;12.50;;
64085;SDS011;50333;47.436;21.390;2023-02-19T11:10:57;19.92;;;10.07;;
64085;SDS011;50333;47.436;21.390;2023-02-19T11:13:28;17.23;;;10.20;;
64085;SDS011;50333;47.436;21.390;2023-02-19T11:15:59;20.08;;;9.98;;
64085;SDS011;50333;47.436;21.390;2023-02-19T11:18:30;23.20;;;12.77;;
64085;SDS011;50333;47.436;21.390;2023-02-19T11:21:00;14.35;;;8.85;;
64085;SDS011;50333;47.436;21.390;2023-02-19T11:23:33;11.50;;;7.90;;
64085;SDS011;50333;47.436;21.390;2023-02-19T11:26:05;16.48;;;8.65;;
64085;SDS011;50333;47.436;21.390;2023-02-19T11:28:43;12.18;;;6.45;;
64085;SDS011;50333;47.436;21.390;2023-02-19T11:31:12;10.77;;;6.10;;
64085;SDS011;50333;47.436;21.390;2023-02-19T11:36:44;6.57;;;4.25;;
64085;SDS011;50333;47.436;21.390;2023-02-19T11:41:58;5.57;;;4.57;;
64085;SDS011;50333;47.436;21.390;2023-02-19T11:58:49;6.85;;;4.20;;
64085;SDS011;50333;47.436;21.390;2023-02-19T12:05:22;4.28;;;3.45;;
64085;SDS011;50333;47.436;21.390;2023-02-19T12:24:33;4.57;;;3.67;;
64085;SDS011;50333;47.436;21.390;2023-02-19T12:27:44;8.60;;;4.07;;
64085;SDS011;50333;47.436;21.390;2023-02-19T12:43:50;9.85;;;5.50;;
64085;SDS011;50333;47.436;21.390;2023-02-19T12:46:30;8.02;;;5.87;;
64085;SDS011;50333;47.436;21.390;2023-02-19T12:49:06;8.30;;;5.68;;
64085;SDS011;50333;47.436;21.390;2023-02-19T12:51:44;10.02;;;5.85;;
64085;SDS011;50333;47.436;21.390;2023-02-19T12:54:34;8.13;;;5.68;;
64085;SDS011;50333;47.436;21.390;2023-02-19T13:00:34;13.13;;;4.55;;
64085;SDS011;50333;47.436;21.390;2023-02-19T13:03:22;6.12;;;4.47;;
64085;SDS011;50333;47.436;21.390;2023-02-19T13:08:51;5.37;;;3.92;;
64085;SDS011;50333;47.436;21.390;2023-02-19T13:11:35;4.28;;;3.67;;
64085;SDS011;50333;47.436;21.390;2023-02-19T13:14:07;5.03;;;4.18;;
64085;SDS011;50333;47.436;21.390;2023-02-19T13:16:42;5.93;;;4.53;;
64085;SDS011;50333;47.436;21.390;2023-02-19T13:19:14;5.60;;;4.45;;
64085;SDS011;50333;47.436;21.390;2023-02-19T13:21:43;4.28;;;3.20;;
64085;SDS011;50333;47.436;21.390;2023-02-19T13:24:37;11.15;;;3.53;;
64085;SDS011;50333;47.436;21.390;2023-02-19T13:38:16;2.90;;;2.50;;
64085;SDS011;50333;47.436;21.390;2023-02-19T13:40:53;4.60;;;2.20;;
64085;SDS011;50333;47.436;21.390;2023-02-19T13:43:30;4.35;;;2.10;;
64085;SDS011;50333;47.436;21.390;2023-02-19T13:46:11;2.40;;;2.03;;
64085;SDS011;50333;47.436;21.390;2023-02-19T13:48:43;7.80;;;2.10;;
64085;SDS011;50333;47.436;21.390;2023-02-19T13:56:51;3.05;;;1.67;;
64085;SDS011;50333;47.436;21.390;2023-02-19T14:07:19;2.05;;;1.73;;
64085;SDS011;50333;47.436;21.390;2023-02-19T14:10:00;1.92;;;1.83;;
64085;SDS011;50333;47.436;21.390;2023-02-19T14:12:35;3.37;;;2.45;;
64085;SDS011;50333;47.436;21.390;2023-02-19T14:18:38;5.20;;;2.20;;
64085;SDS011;50333;47.436;21.390;2023-02-19T14:21:17;2.62;;;1.95;;
64085;SDS011;50333;47.436;21.390;2023-02-19T14:23:54;4.12;;;2.65;;
64085;SDS011;50333;47.436;21.390;2023-02-19T14:26:24;2.83;;;2.53;;
64085;SDS011;50333;47.436;21.390;2023-02-19T14:28:54;3.17;;;2.50;;
64085;SDS011;50333;47.436;21.390;2023-02-19T14:33:59;5.22;;;2.33;;
64085;SDS011;50333;47.436;21.390;2023-02-19T14:36:34;5.70;;;2.53;;
64085;SDS011;50333;47.436;21.390;2023-02-19T14:41:38;3.33;;;1.70;;
64085;SDS011;50333;47.436;21.390;2023-02-19T14:44:14;3.42;;;2.20;;
64085;SDS011;50333;47.436;21.390;2023-02-19T14:46:47;2.03;;;1.75;;
64085;SDS011;50333;47.436;21.390;2023-02-19T14:49:25;2.10;;;1.67;;
64085;SDS011;50333;47.436;21.390;2023-02-19T14:51:58;10.77;;;1.77;;
64085;SDS011;50333;47.436;21.390;2023-02-19T14:57:31;3.37;;;2.17;;
64085;SDS011;50333;47.436;21.390;2023-02-19T15:00:13;5.22;;;2.40;;
64085;SDS011;50333;47.436;21.390;2023-02-19T15:02:46;27.40;;;22.77;;
64085;SDS011;50333;47.436;21.390;2023-02-19T15:05:17;6.25;;;5.55;;
64085;SDS011;50333;47.436;21.390;2023-02-19T15:07:48;2.62;;;1.95;;
64085;SDS011;50333;47.436;21.390;2023-02-19T15:10:18;2.97;;;2.50;;
64085;SDS011;50333;47.436;21.390;2023-02-19T15:12:53;2.50;;;2.30;;
64085;SDS011;50333;47.436;21.390;2023-02-19T15:15:24;2.60;;;2.40;;
64085;SDS011;50333;47.436;21.390;2023-02-19T15:17:55;3.15;;;2.62;;
64085;SDS011;50333;47.436;21.390;2023-02-19T15:20:27;3.65;;;1.80;;
64085;SDS011;50333;47.436;21.390;2023-02-19T15:22:57;2.28;;;2.08;;
64085;SDS011;50333;47.436;21.390;2023-02-19T15:25:33;2.45;;;2.15;;
64085;SDS011;50333;47.436;21.390;2023-02-19T15:33:25;1.75;;;1.65;;
64085;SDS011;50333;47.436;21.390;2023-02-19T15:35:58;2.50;;;1.80;;
64085;SDS011;50333;47.436;21.390;2023-02-19T15:38:28;3.30;;;1.55;;
64085;SDS011;50333;47.436;21.390;2023-02-19T15:40:57;1.70;;;1.60;;
64085;SDS011;50333;47.436;21.390;2023-02-19T15:46:20;3.83;;;3.17;;
64085;SDS011;50333;47.436;21.390;2023-02-19T15:49:02;5.45;;;1.10;;
64085;SDS011;50333;47.436;21.390;2023-02-19T15:51:54;1.35;;;0.98;;
64085;SDS011;50333;47.436;21.390;2023-02-19T15:54:32;1.12;;;1.00;;
64085;SDS011;50333;47.436;21.390;2023-02-19T15:57:10;1.02;;;0.90;;
64085;SDS011;50333;47.436;21.390;2023-02-19T15:59:48;0.82;;;0.82;;
64085;SDS011;50333;47.436;21.390;2023-02-19T16:02:21;2.80;;;1.73;;
64085;SDS011;50333;47.436;21.390;2023-02-19T16:04:50;2.10;;;1.48;;
64085;SDS011;50333;47.436;21.390;2023-02-19T16:07:28;2.47;;;1.60;;
64085;SDS011;50333;47.436;21.390;2023-02-19T16:10:21;3.15;;;2.60;;
64085;SDS011;50333;47.436;21.390;2023-02-19T16:12:57;3.33;;;3.00;;
64085;SDS011;50333;47.436;21.390;2023-02-19T16:15:30;2.75;;;2.50;;
64085;SDS011;50333;47.436;21.390;2023-02-19T16:17:58;2.15;;;1.60;;
64085;SDS011;50333;47.436;21.390;2023-02-19T16:20:33;4.47;;;1.62;;
64085;SDS011;50333;47.436;21.390;2023-02-19T16:23:04;1.50;;;1.30;;
64085;SDS011;50333;47.436;21.390;2023-02-19T16:25:40;2.50;;;1.20;;
64085;SDS011;50333;47.436;21.390;2023-02-19T16:28:12;1.12;;;1.08;;
64085;SDS011;50333;47.436;21.390;2023-02-19T16:30:54;4.32;;;1.70;;
64085;SDS011;50333;47.436;21.390;2023-02-19T16:33:37;2.53;;;1.05;;
64085;SDS011;50333;47.436;21.390;2023-02-19T16:36:21;1.08;;;1.00;;
64085;SDS011;50333;47.436;21.390;2023-02-19T16:39:03;2.65;;;1.02;;
64085;SDS011;50333;47.436;21.390;2023-02-19T16:47:02;9.00;;;2.92;;
64085;SDS011;50333;47.436;21.390;2023-02-19T16:49:35;3.20;;;2.15;;
64085;SDS011;50333;47.436;21.390;2023-02-19T16:52:03;4.95;;;1.70;;
64085;SDS011;50333;47.436;21.390;2023-02-19T16:54:32;1.77;;;1.42;;
64085;SDS011;50333;47.436;21.390;2023-02-19T16:57:00;1.70;;;1.37;;
64085;SDS011;50333;47.436;21.390;2023-02-19T16:59:28;1.37;;;1.08;;
64085;SDS011;50333;47.436;21.390;2023-02-19T17:01:56;3.30;;;1.55;;
64085;SDS011;50333;47.436;21.390;2023-02-19T17:04:26;2.10;;;1.70;;
64085;SDS011;50333;47.436;21.390;2023-02-19T17:06:53;3.15;;;1.67;;
64085;SDS011;50333;47.436;21.390;2023-02-19T17:09:21;10.90;;;4.82;;
64085;SDS011;50333;47.436;21.390;2023-02-19T17:11:51;11.55;;;5.57;;
64085;SDS011;50333;47.436;21.390;2023-02-19T17:14:19;1.50;;;1.40;;
64085;SDS011;50333;47.436;21.390;2023-02-19T17:16:47;10.85;;;3.55;;
64085;SDS011;50333;47.436;21.390;2023-02-19T17:19:16;1.33;;;0.90;;
64085;SDS011;50333;47.436;21.390;2023-02-19T17:21:45;1.00;;;0.90;;
64085;SDS011;50333;47.436;21.390;2023-02-19T17:24:13;1.10;;;0.90;;
64085;SDS011;50333;47.436;21.390;2023-02-19T17:26:45;1.67;;;0.85;;
64085;SDS011;50333;47.436;21.390;2023-02-19T17:29:13;0.80;;;0.80;;
64085;SDS011;50333;47.436;21.390;2023-02-19T17:31:45;0.80;;;0.80;;
64085;SDS011;50333;47.436;21.390;2023-02-19T17:34:13;1.33;;;0.93;;
64085;SDS011;50333;47.436;21.390;2023-02-19T17:36:40;1.92;;;1.20;;
64085;SDS011;50333;47.436;21.390;2023-02-19T17:39:12;1.00;;;1.00;;
64085;SDS011;50333;47.436;21.390;2023-02-19T17:41:45;1.95;;;1.33;;
64085;SDS011;50333;47.436;21.390;2023-02-19T17:44:12;2.30;;;1.67;;
64085;SDS011;50333;47.436;21.390;2023-02-19T17:46:40;3.58;;;2.20;;
64085;SDS011;50333;47.436;21.390;2023-02-19T17:49:09;5.68;;;3.15;;
64085;SDS011;50333;47.436;21.390;2023-02-19T17:51:39;4.95;;;3.42;;
64085;SDS011;50333;47.436;21.390;2023-02-19T17:54:07;2.00;;;1.70;;
64085;SDS011;50333;47.436;21.390;2023-02-19T17:56:35;2.72;;;1.90;;
64085;SDS011;50333;47.436;21.390;2023-02-19T17:59:04;4.97;;;2.95;;
64085;SDS011;50333;47.436;21.390;2023-02-19T18:01:32;5.05;;;2.90;;
64085;SDS011;50333;47.436;21.390;2023-02-19T18:04:00;8.65;;;3.80;;
64085;SDS011;50333;47.436;21.390;2023-02-19T18:06:28;1.60;;;1.35;;
64085;SDS011;50333;47.436;21.390;2023-02-19T18:08:58;3.70;;;2.55;;
64085;SDS011;50333;47.436;21.390;2023-02-19T18:11:26;4.32;;;2.97;;
64085;SDS011;50333;47.436;21.390;2023-02-19T18:13:54;6.22;;;3.37;;
64085;SDS011;50333;47.436;21.390;2023-02-19T18:16:22;8.02;;;3.37;;
64085;SDS011;50333;47.436;21.390;2023-02-19T18:18:50;7.15;;;2.42;;
64085;SDS011;50333;47.436;21.390;2023-02-19T18:21:20;1.40;;;1.30;;
64085;SDS011;50333;47.436;21.390;2023-02-19T18:23:50;2.20;;;1.90;;
64085;SDS011;50333;47.436;21.390;2023-02-19T18:26:18;2.37;;;1.95;;
64085;SDS011;50333;47.436;21.390;2023-02-19T18:28:48;3.37;;;1.40;;
64085;SDS011;50333;47.436;21.390;2023-02-19T18:31:16;2.83;;;1.25;;
64085;SDS011;50333;47.436;21.390;2023-02-19T18:33:44;2.00;;;1.48;;
64085;SDS011;50333;47.436;21.390;2023-02-19T18:36:12;3.28;;;1.35;;
64085;SDS011;50333;47.436;21.390;2023-02-19T18:38:40;2.10;;;1.23;;
64085;SDS011;50333;47.436;21.390;2023-02-19T18:41:09;5.15;;;1.30;;
64085;SDS011;50333;47.436;21.390;2023-02-19T18:43:41;1.20;;;1.10;;
64085;SDS011;50333;47.436;21.390;2023-02-19T18:46:09;2.87;;;1.73;;
64085;SDS011;50333;47.436;21.390;2023-02-19T18:48:37;2.87;;;1.83;;
64085;SDS011;50333;47.436;21.390;2023-02-19T18:51:08;3.62;;;1.90;;
64085;SDS011;50333;47.436;21.390;2023-02-19T18:53:38;3.37;;;2.15;;
64085;SDS011;50333;47.436;21.390;2023-02-19T18:56:11;2.80;;;2.00;;
64085;SDS011;50333;47.436;21.390;2023-02-19T18:58:40;4.90;;;2.72;;
64085;SDS011;50333;47.436;21.390;2023-02-19T19:01:11;3.90;;;2.67;;
64085;SDS011;50333;47.436;21.390;2023-02-19T19:03:40;4.05;;;2.17;;
64085;SDS011;50333;47.436;21.390;2023-02-19T19:06:08;3.53;;;2.50;;
64085;SDS011;50333;47.436;21.390;2023-02-19T19:08:36;3.33;;;2.90;;
64085;SDS011;50333;47.436;21.390;2023-02-19T19:11:04;3.42;;;2.50;;
64085;SDS011;50333;47.436;21.390;2023-02-19T19:13:33;53.53;;;4.85;;
64085;SDS011;50333;47.436;21.390;2023-02-19T19:16:01;4.05;;;2.53;;
64085;SDS011;50333;47.436;21.390;2023-02-19T19:18:30;3.67;;;2.58;;
64085;SDS011;50333;47.436;21.390;2023-02-19T19:21:04;3.70;;;2.65;;
64085;SDS011;50333;47.436;21.390;2023-02-19T19:23:34;4.57;;;3.62;;
64085;SDS011;50333;47.436;21.390;2023-02-19T19:26:03;5.90;;;4.12;;
64085;SDS011;50333;47.436;21.390;2023-02-19T19:28:32;4.72;;;2.72;;
64085;SDS011;50333;47.436;21.390;2023-02-19T19:31:01;3.20;;;2.70;;
64085;SDS011;50333;47.436;21.390;2023-02-19T19:33:30;3.53;;;2.55;;
64085;SDS011;50333;47.436;21.390;2023-02-19T19:35:58;25.58;;;12.25;;
64085;SDS011;50333;47.436;21.390;2023-02-19T19:38:26;14.63;;;8.35;;
64085;SDS011;50333;47.436;21.390;2023-02-19T19:40:54;3.50;;;3.20;;
64085;SDS011;50333;47.436;21.390;2023-02-19T19:43:25;8.20;;;3.10;;
64085;SDS011;50333;47.436;21.390;2023-02-19T19:45:54;1.73;;;1.60;;
64085;SDS011;50333;47.436;21.390;2023-02-19T19:48:23;1.80;;;1.55;;
64085;SDS011;50333;47.436;21.390;2023-02-19T19:50:56;2.60;;;1.40;;
64085;SDS011;50333;47.436;21.390;2023-02-19T19:53:25;0.90;;;0.82;;
64085;SDS011;50333;47.436;21.390;2023-02-19T19:55:53;1.15;;;1.10;;
64085;SDS011;50333;47.436;21.390;2023-02-19T19:58:21;5.93;;;2.97;;
64085;SDS011;50333;47.436;21.390;2023-02-19T20:00:51;4.85;;;2.58;;
64085;SDS011;50333;47.436;21.390;2023-02-19T20:03:20;4.72;;;3.28;;
64085;SDS011;50333;47.436;21.390;2023-02-19T20:05:49;1.83;;;1.62;;
64085;SDS011;50333;47.436;21.390;2023-02-19T20:08:17;3.78;;;3.03;;
64085;SDS011;50333;47.436;21.390;2023-02-19T20:10:46;6.35;;;3.33;;
64085;SDS011;50333;47.436;21.390;2023-02-19T20:13:14;5.95;;;3.78;;
64085;SDS011;50333;47.436;21.390;2023-02-19T20:15:46;2.15;;;1.90;;
64085;SDS011;50333;47.436;21.390;2023-02-19T20:18:14;7.28;;;3.80;;
64085;SDS011;50333;47.436;21.390;2023-02-19T20:20:41;2.37;;;1.85;;
64085;SDS011;50333;47.436;21.390;2023-02-19T20:23:11;2.47;;;1.45;;
64085;SDS011;50333;47.436;21.390;2023-02-19T20:25:39;1.55;;;1.45;;
64085;SDS011;50333;47.436;21.390;2023-02-19T20:28:06;2.22;;;1.33;;
64085;SDS011;50333;47.436;21.390;2023-02-19T20:30:34;1.20;;;1.10;;
64085;SDS011;50333;47.436;21.390;2023-02-19T20:33:03;1.35;;;1.17;;
64085;SDS011;50333;47.436;21.390;2023-02-19T20:35:31;2.12;;;1.40;;
64085;SDS011;50333;47.436;21.390;2023-02-19T20:38:00;2.40;;;1.35;;
64085;SDS011;50333;47.436;21.390;2023-02-19T20:40:29;1.37;;;1.27;;
64085;SDS011;50333;47.436;21.390;2023-02-19T20:42:58;3.35;;;1.40;;
64085;SDS011;50333;47.436;21.390;2023-02-19T20:45:28;3.30;;;2.05;;
64085;SDS011;50333;47.436;21.390;2023-02-19T20:47:57;1.23;;;1.12;;
64085;SDS011;50333;47.436;21.390;2023-02-19T20:50:24;1.80;;;1.40;;
64085;SDS011;50333;47.436;21.390;2023-02-19T20:52:53;3.90;;;1.58;;
64085;SDS011;50333;47.436;21.390;2023-02-19T20:55:22;1.80;;;1.58;;
64085;SDS011;50333;47.436;21.390;2023-02-19T20:57:51;2.42;;;1.62;;
64085;SDS011;50333;47.436;21.390;2023-02-19T21:00:19;4.80;;;2.00;;
64085;SDS011;50333;47.436;21.390;2023-02-19T21:02:48;3.17;;;1.85;;
64085;SDS011;50333;47.436;21.390;2023-02-19T21:05:17;2.12;;;1.92;;
64085;SDS011;50333;47.436;21.390;2023-02-19T21:07:46;2.58;;;1.85;;
64085;SDS011;50333;47.436;21.390;2023-02-19T21:10:14;2.60;;;1.98;;
64085;SDS011;50333;47.436;21.390;2023-02-19T21:12:42;4.22;;;2.47;;
64085;SDS011;50333;47.436;21.390;2023-02-19T21:15:13;4.35;;;2.00;;
64085;SDS011;50333;47.436;21.390;2023-02-19T21:17:43;2.20;;;1.90;;
64085;SDS011;50333;47.436;21.390;2023-02-19T21:22:41;3.67;;;1.70;;
64085;SDS011;50333;47.436;21.390;2023-02-19T21:25:10;3.22;;;2.20;;
64085;SDS011;50333;47.436;21.390;2023-02-19T21:27:38;2.33;;;1.92;;
64085;SDS011;50333;47.436;21.390;2023-02-19T21:30:06;4.85;;;2.80;;
64085;SDS011;50333;47.436;21.390;2023-02-19T21:32:34;3.40;;;2.33;;
64085;SDS011;50333;47.436;21.390;2023-02-19T21:35:03;2.90;;;2.03;;
64085;SDS011;50333;47.436;21.390;2023-02-19T21:37:32;2.60;;;2.40;;
64085;SDS011;50333;47.436;21.390;2023-02-19T21:39:59;3.35;;;2.33;;
64085;SDS011;50333;47.436;21.390;2023-02-19T21:42:28;3.15;;;2.15;;
64085;SDS011;50333;47.436;21.390;2023-02-19T21:44:55;5.45;;;2.53;;
64085;SDS011;50333;47.436;21.390;2023-02-19T21:47:23;2.42;;;2.22;;
64085;SDS011;50333;47.436;21.390;2023-02-19T21:49:51;2.75;;;2.30;;
64085;SDS011;50333;47.436;21.390;2023-02-19T21:52:18;5.65;;;2.33;;
64085;SDS011;50333;47.436;21.390;2023-02-19T21:54:47;4.78;;;3.00;;
64085;SDS011;50333;47.436;21.390;2023-02-19T21:57:15;2.97;;;2.40;;
64085;SDS011;50333;47.436;21.390;2023-02-19T21:59:43;3.42;;;2.72;;
64085;SDS011;50333;47.436;21.390;2023-02-19T22:02:11;4.40;;;2.97;;
64085;SDS011;50333;47.436;21.390;2023-02-19T22:04:39;3.62;;;2.92;;
64085;SDS011;50333;47.436;21.390;2023-02-19T22:07:06;4.50;;;2.80;;
64085;SDS011;50333;47.436;21.390;2023-02-19T22:09:34;5.10;;;2.70;;
64085;SDS011;50333;47.436;21.390;2023-02-19T22:12:03;6.55;;;2.92;;
64085;SDS011;50333;47.436;21.390;2023-02-19T22:14:31;3.35;;;2.55;;
64085;SDS011;50333;47.436;21.390;2023-02-19T22:16:58;6.18;;;2.87;;
64085;SDS011;50333;47.436;21.390;2023-02-19T22:19:26;4.68;;;2.75;;
64085;SDS011;50333;47.436;21.390;2023-02-19T22:21:54;3.33;;;2.80;;
64085;SDS011;50333;47.436;21.390;2023-02-19T22:24:22;3.80;;;2.80;;
64085;SDS011;50333;47.436;21.390;2023-02-19T22:26:53;8.60;;;2.85;;
64085;SDS011;50333;47.436;21.390;2023-02-19T22:29:22;7.10;;;3.17;;
64085;SDS011;50333;47.436;21.390;2023-02-19T22:31:50;4.95;;;3.25;;
64085;SDS011;50333;47.436;21.390;2023-02-19T22:34:19;6.90;;;3.20;;
64085;SDS011;50333;47.436;21.390;2023-02-19T22:36:46;5.82;;;2.97;;
64085;SDS011;50333;47.436;21.390;2023-02-19T22:39:22;3.53;;;2.62;;
64085;SDS011;50333;47.436;21.390;2023-02-19T22:41:52;5.10;;;2.87;;
64085;SDS011;50333;47.436;21.390;2023-02-19T22:44:20;8.55;;;3.35;;
64085;SDS011;50333;47.436;21.390;2023-02-19T22:46:51;5.30;;;3.08;;
64085;SDS011;50333;47.436;21.390;2023-02-19T22:49:21;5.97;;;3.15;;
64085;SDS011;50333;47.436;21.390;2023-02-19T22:52:00;4.85;;;2.83;;
64085;SDS011;50333;47.436;21.390;2023-02-19T22:54:30;5.90;;;2.80;;
64085;SDS011;50333;47.436;21.390;2023-02-19T22:56:58;3.90;;;2.95;;
64085;SDS011;50333;47.436;21.390;2023-02-19T22:59:26;3.90;;;2.65;;
64085;SDS011;50333;47.436;21.390;2023-02-19T23:01:54;6.50;;;2.65;;
64085;SDS011;50333;47.436;21.390;2023-02-19T23:04:23;2.60;;;2.30;;
64085;SDS011;50333;47.436;21.390;2023-02-19T23:06:51;5.50;;;2.90;;
64085;SDS011;50333;47.436;21.390;2023-02-19T23:09:23;3.22;;;2.58;;
64085;SDS011;50333;47.436;21.390;2023-02-19T23:12:03;3.40;;;2.47;;
64085;SDS011;50333;47.436;21.390;2023-02-19T23:14:33;4.90;;;2.50;;
64085;SDS011;50333;47.436;21.390;2023-02-19T23:17:01;4.87;;;2.25;;
64085;SDS011;50333;47.436;21.390;2023-02-19T23:19:30;3.12;;;2.45;;
64085;SDS011;50333;47.436;21.390;2023-02-19T23:21:58;4.78;;;2.67;;
64085;SDS011;50333;47.436;21.390;2023-02-19T23:24:26;3.37;;;2.30;;
64085;SDS011;50333;47.436;21.390;2023-02-19T23:26:54;4.22;;;3.00;;
64085;SDS011;50333;47.436;21.390;2023-02-19T23:29:22;4.22;;;2.70;;
64085;SDS011;50333;47.436;21.390;2023-02-19T23:31:52;3.12;;;2.83;;
64085;SDS011;50333;47.436;21.390;2023-02-19T23:34:21;3.72;;;2.47;;
64085;SDS011;50333;47.436;21.390;2023-02-19T23:36:49;7.75;;;2.58;;
64085;SDS011;50333;47.436;21.390;2023-02-19T23:39:18;5.12;;;2.92;;
64085;SDS011;50333;47.436;21.390;2023-02-19T23:41:48;3.75;;;2.97;;
64085;SDS011;50333;47.436;21.390;2023-02-19T23:44:18;5.78;;;2.83;;
64085;SDS011;50333;47.436;21.390;2023-02-19T23:46:48;5.40;;;2.85;;
64085;SDS011;50333;47.436;21.390;2023-02-19T23:49:16;3.30;;;2.20;;
64085;SDS011;50333;47.436;21.390;2023-02-19T23:51:45;5.00;;;2.33;;
64085;SDS011;50333;47.436;21.390;2023-02-19T23:54:13;3.83;;;2.72;;
64085;SDS011;50333;47.436;21.390;2023-02-19T23:56:41;4.90;;;2.67;;
64085;SDS011;50333;47.436;21.390;2023-02-19T23:59:09;7.35;;;2.92;;
